createdAt,value
2018-09-21T01:05:10.355Z,20.60
2018-09-21T01:07:39.379Z,20.60
2018-09-21T01:10:08.435Z,20.60
2018-09-21T01:12:37.154Z,20.60
2018-09-21T01:15:06.189Z,20.60
2018-09-21T01:17:34.900Z,20.50
2018-09-21T01:20:03.806Z,20.60
2018-09-21T01:22:32.490Z,20.60
2018-09-21T01:25:01.149Z,20.60
2018-09-21T01:27:29.748Z,20.60
2018-09-21T01:29:58.543Z,20.60
2018-09-21T01:32:27.322Z,20.60
2018-09-21T01:34:55.920Z,20.60
2018-09-21T01:37:24.516Z,20.70
2018-09-21T01:39:53.106Z,20.70
2018-09-21T01:42:21.846Z,20.60
2018-09-21T01:44:50.379Z,20.70
2018-09-21T01:47:19.135Z,20.70
2018-09-21T01:49:47.814Z,20.70
2018-09-21T01:52:16.566Z,20.80
2018-09-21T01:54:45.806Z,20.80
2018-09-21T01:57:14.583Z,20.80
2018-09-21T01:59:43.399Z,20.80
2018-09-21T02:02:12.436Z,20.80
2018-09-21T02:04:41.554Z,20.70
2018-09-21T02:07:11.262Z,20.70
2018-09-21T02:09:40.198Z,20.70
2018-09-21T02:12:09.648Z,20.70
2018-09-21T02:14:38.352Z,20.70
2018-09-21T02:17:07.322Z,20.70
2018-09-21T02:19:36.044Z,20.70
2018-09-21T02:22:04.968Z,20.70
2018-09-21T02:24:33.782Z,20.80
2018-09-21T02:27:02.570Z,20.70
2018-09-21T02:29:31.261Z,20.70
2018-09-21T02:31:59.931Z,20.60
2018-09-21T02:34:28.673Z,20.60
2018-09-21T02:36:57.285Z,20.50
2018-09-21T02:39:26.102Z,20.50
2018-09-21T02:41:54.792Z,20.50
2018-09-21T02:44:23.524Z,20.50
2018-09-21T02:46:52.282Z,20.50
2018-09-21T02:49:20.831Z,20.50
2018-09-21T02:51:49.553Z,20.50
2018-09-21T02:54:18.242Z,20.40
2018-09-21T02:56:47.027Z,20.40
2018-09-21T02:59:15.775Z,20.30
2018-09-21T03:01:44.495Z,20.30
2018-09-21T03:04:12.998Z,20.40
2018-09-21T03:06:41.664Z,20.40
2018-09-21T03:09:11.033Z,20.40
2018-09-21T03:11:39.811Z,20.40
2018-09-21T03:14:08.540Z,20.40
2018-09-21T03:16:37.283Z,20.40
2018-09-21T03:19:06.354Z,20.40
2018-09-21T03:21:35.091Z,20.50
2018-09-21T03:24:03.748Z,20.50
2018-09-21T03:26:32.397Z,20.50
2018-09-21T03:29:01.211Z,20.60
2018-09-21T03:31:30.053Z,20.70
2018-09-21T03:33:58.665Z,20.50
2018-09-21T03:36:27.614Z,20.50
2018-09-21T03:41:24.761Z,20.50
2018-09-21T03:43:53.646Z,20.50
2018-09-21T03:46:22.261Z,20.50
2018-09-21T03:48:50.959Z,20.40
2018-09-21T03:51:19.549Z,20.30
2018-09-21T03:53:48.426Z,20.20
2018-09-21T03:56:17.075Z,20.20
2018-09-21T03:58:45.550Z,20.20
2018-09-21T04:01:14.333Z,20.20
2018-09-21T04:03:43.709Z,20.20
2018-09-21T04:06:12.353Z,20.10
2018-09-21T04:08:40.984Z,20.10
2018-09-21T04:11:09.629Z,20.00
2018-09-21T04:13:38.219Z,20.00
2018-09-21T04:16:07.639Z,19.90
2018-09-21T04:18:36.268Z,19.90
2018-09-21T04:21:05.054Z,19.90
2018-09-21T04:23:33.745Z,19.90
2018-09-21T04:26:02.419Z,19.80
2018-09-21T04:28:31.164Z,19.80
2018-09-21T04:30:59.832Z,19.80
2018-09-21T04:33:28.508Z,19.80
2018-09-21T04:35:57.425Z,19.70
2018-09-21T04:38:26.207Z,19.70
2018-09-21T04:40:55.161Z,19.70
2018-09-21T04:43:24.013Z,19.70
2018-09-21T04:45:55.000Z,19.60
2018-09-21T04:48:23.971Z,19.70
2018-09-21T04:50:52.898Z,19.80
2018-09-21T04:53:21.883Z,19.80
2018-09-21T04:55:50.640Z,19.80
2018-09-21T04:58:19.304Z,19.90
2018-09-21T05:00:48.261Z,19.90
2018-09-21T05:03:17.255Z,19.90
2018-09-21T05:05:47.745Z,19.90
2018-09-21T05:08:20.781Z,19.90
2018-09-21T05:10:53.352Z,19.90
2018-09-21T05:13:52.056Z,20.00
2018-09-21T05:16:33.824Z,19.90
2018-09-21T05:22:09.268Z,19.90
2018-09-21T05:24:38.587Z,20.00
2018-09-21T05:27:08.469Z,20.00
2018-09-21T05:29:38.215Z,20.00
2018-09-21T05:32:07.904Z,20.00
2018-09-21T05:34:36.903Z,20.00
2018-09-21T05:37:06.807Z,20.00
2018-09-21T05:39:35.773Z,20.10
2018-09-21T05:42:04.563Z,20.20
2018-09-21T05:44:33.360Z,20.20
2018-09-21T05:47:02.506Z,20.20
2018-09-21T05:49:31.328Z,20.10
2018-09-21T05:52:01.993Z,20.20
2018-09-21T05:54:30.647Z,20.20
2018-09-21T05:56:59.438Z,20.30
2018-09-21T05:59:28.327Z,20.30
2018-09-21T06:01:57.833Z,20.40
2018-09-21T06:04:26.717Z,20.40
2018-09-21T06:06:55.715Z,20.30
2018-09-21T06:09:24.623Z,20.30
2018-09-21T06:12:05.308Z,20.30
2018-09-21T06:14:34.355Z,20.20
2018-09-21T06:17:19.291Z,20.30
2018-09-21T06:19:51.584Z,20.20
2018-09-21T06:22:22.623Z,20.20
2018-09-21T06:25:05.740Z,20.20
2018-09-21T06:27:52.602Z,20.20
